createdAt,value
2017-10-15T00:00:30.456Z,1015.98
2017-10-15T00:01:10.824Z,1016.01
2017-10-15T00:01:51.302Z,1015.97
2017-10-15T00:02:31.766Z,1015.98
2017-10-15T00:03:12.128Z,1015.96
2017-10-15T00:03:52.528Z,1016.01
2017-10-15T00:04:32.899Z,1016
2017-10-15T00:05:13.378Z,1016.02
2017-10-15T00:05:53.754Z,1016.04
2017-10-15T00:06:34.187Z,1016.02
2017-10-15T00:07:14.666Z,1016
2017-10-15T00:07:54.999Z,1016.01
2017-10-15T00:08:35.488Z,1016
2017-10-15T00:09:15.803Z,1015.98
2017-10-15T00:09:56.285Z,1015.94
2017-10-15T00:10:36.696Z,1015.92
2017-10-15T00:11:17.075Z,1015.93
2017-10-15T00:11:57.643Z,1015.92
2017-10-15T00:12:38.004Z,1015.95
2017-10-15T00:13:18.517Z,1015.92
2017-10-15T00:13:58.849Z,1015.95
2017-10-15T00:14:39.257Z,1015.92
2017-10-15T00:15:19.698Z,1015.89
2017-10-15T00:16:00.232Z,1015.9
2017-10-15T00:16:40.606Z,1015.87
2017-10-15T00:17:21.117Z,1015.85
2017-10-15T00:18:01.477Z,1015.87
2017-10-15T00:18:41.932Z,1015.82
2017-10-15T00:19:22.255Z,1015.86
2017-10-15T00:20:02.802Z,1015.87
2017-10-15T00:20:43.227Z,1015.83
2017-10-15T00:21:23.607Z,1015.81
2017-10-15T00:22:04.026Z,1015.84
2017-10-15T00:22:44.376Z,1015.92
2017-10-15T00:23:24.750Z,1015.84
2017-10-15T00:24:05.244Z,1015.83
2017-10-15T00:24:45.616Z,1015.88
2017-10-15T00:25:26.092Z,1015.93
2017-10-15T00:26:06.528Z,1015.89
2017-10-15T00:26:46.874Z,1015.91
2017-10-15T00:27:27.362Z,1015.93
2017-10-15T00:28:07.856Z,1015.9
2017-10-15T00:28:48.246Z,1015.92
2017-10-15T00:29:28.725Z,1015.91
2017-10-15T00:30:09.126Z,1015.93
2017-10-15T00:30:49.565Z,1015.96
2017-10-15T00:31:29.953Z,1015.9
2017-10-15T00:32:10.404Z,1015.92
2017-10-15T00:32:50.838Z,1015.94
2017-10-15T00:33:31.336Z,1015.9
2017-10-15T00:34:11.796Z,1015.91
2017-10-15T00:34:52.188Z,1015.9
2017-10-15T00:35:32.531Z,1015.85
2017-10-15T00:36:13.038Z,1015.88
2017-10-15T00:36:53.633Z,1015.91
2017-10-15T00:37:34.237Z,1015.89
2017-10-15T00:38:14.593Z,1015.87
2017-10-15T00:38:55.070Z,1015.86
2017-10-15T00:39:35.453Z,1015.88
2017-10-15T00:40:15.903Z,1015.83
2017-10-15T00:40:56.396Z,1015.88
2017-10-15T00:41:36.592Z,1015.84
2017-10-15T00:42:17.040Z,1015.81
2017-10-15T00:42:57.603Z,1015.82
2017-10-15T00:43:38.054Z,1015.82
2017-10-15T00:44:18.389Z,1015.84
2017-10-15T00:44:58.870Z,1015.8
2017-10-15T00:45:39.323Z,1015.77
2017-10-15T00:46:19.786Z,1015.83
2017-10-15T00:47:00.136Z,1015.79
2017-10-15T00:47:40.558Z,1015.79
2017-10-15T00:48:21.006Z,1015.84
2017-10-15T00:49:01.379Z,1015.85
2017-10-15T00:49:41.750Z,1015.82
2017-10-15T00:50:22.188Z,1015.79
2017-10-15T00:51:02.681Z,1015.83
2017-10-15T00:51:43.098Z,1015.8
2017-10-15T00:52:23.634Z,1015.82
2017-10-15T00:53:04.003Z,1015.85
2017-10-15T00:53:44.482Z,1015.85
2017-10-15T00:54:24.910Z,1015.81
2017-10-15T00:55:05.288Z,1015.83
2017-10-15T00:55:45.675Z,1015.85
2017-10-15T00:56:26.167Z,1015.85
2017-10-15T00:57:06.504Z,1015.83
2017-10-15T00:57:46.904Z,1015.81
2017-10-15T00:58:27.266Z,1015.83
2017-10-15T00:59:07.803Z,1015.78
2017-10-15T00:59:48.128Z,1015.77
2017-10-15T01:00:28.607Z,1015.81
2017-10-15T01:01:08.916Z,1015.79
2017-10-15T01:01:50.263Z,1015.76
2017-10-15T01:02:29.929Z,1015.8
2017-10-15T01:03:10.277Z,1015.8
2017-10-15T01:03:50.702Z,1015.79
2017-10-15T01:04:31.162Z,1015.8
2017-10-15T01:05:11.647Z,1015.75
2017-10-15T01:05:52.034Z,1015.82
2017-10-15T01:06:32.440Z,1015.8
2017-10-15T01:07:13.148Z,1015.77
2017-10-15T01:07:53.483Z,1015.82
2017-10-15T01:08:34.029Z,1015.79
2017-10-15T01:09:14.429Z,1015.83
2017-10-15T01:09:54.781Z,1015.8
2017-10-15T01:10:35.291Z,1015.78
2017-10-15T01:11:15.704Z,1015.83
2017-10-15T01:11:56.080Z,1015.83
2017-10-15T01:12:36.465Z,1015.8
2017-10-15T01:13:16.878Z,1015.79
2017-10-15T01:13:57.245Z,1015.82
2017-10-15T01:14:37.707Z,1015.81
2017-10-15T01:15:18.090Z,1015.79
2017-10-15T01:15:58.548Z,1015.79
2017-10-15T01:16:38.889Z,1015.81
2017-10-15T01:17:19.267Z,1015.83
2017-10-15T01:17:59.689Z,1015.77
2017-10-15T01:18:40.134Z,1015.86
2017-10-15T01:19:20.613Z,1015.8
2017-10-15T01:20:01.055Z,1015.8
2017-10-15T01:20:41.474Z,1015.78
2017-10-15T01:21:21.934Z,1015.78
2017-10-15T01:22:02.317Z,1015.83
2017-10-15T01:22:42.706Z,1015.77
2017-10-15T01:23:23.177Z,1015.77
2017-10-15T01:24:03.626Z,1015.81
2017-10-15T01:24:44.069Z,1015.83
2017-10-15T01:25:24.500Z,1015.81
2017-10-15T01:26:04.904Z,1015.8
2017-10-15T01:26:45.304Z,1015.77
2017-10-15T01:27:25.825Z,1015.78
2017-10-15T01:28:06.255Z,1015.75
2017-10-15T01:28:46.592Z,1015.75
2017-10-15T01:29:26.998Z,1015.8
2017-10-15T01:30:07.386Z,1015.77
2017-10-15T01:30:47.839Z,1015.74
2017-10-15T01:31:28.194Z,1015.76
2017-10-15T01:32:08.635Z,1015.76
2017-10-15T01:32:49.066Z,1015.77
2017-10-15T01:33:29.402Z,1015.8
2017-10-15T01:34:09.837Z,1015.76
2017-10-15T01:34:50.224Z,1015.76
2017-10-15T01:35:30.658Z,1015.74
2017-10-15T01:36:11.059Z,1015.75
2017-10-15T01:36:51.443Z,1015.73
2017-10-15T01:37:31.909Z,1015.73
2017-10-15T01:38:12.206Z,1015.73
2017-10-15T01:38:52.653Z,1015.72
2017-10-15T01:39:32.963Z,1015.75
2017-10-15T01:40:13.461Z,1015.75
2017-10-15T01:40:54.059Z,1015.71
2017-10-15T01:41:34.586Z,1015.74
2017-10-15T01:42:14.990Z,1015.7
2017-10-15T01:42:55.400Z,1015.66
2017-10-15T01:43:35.735Z,1015.65
2017-10-15T01:44:16.094Z,1015.67
2017-10-15T01:44:56.613Z,1015.64
2017-10-15T01:45:36.967Z,1015.67
2017-10-15T01:46:17.406Z,1015.68
2017-10-15T01:46:57.735Z,1015.64
2017-10-15T01:47:38.129Z,1015.65
2017-10-15T01:48:18.572Z,1015.66
2017-10-15T01:48:59.080Z,1015.64
2017-10-15T01:49:39.563Z,1015.64
2017-10-15T01:50:20.076Z,1015.66
2017-10-15T01:51:00.437Z,1015.6
2017-10-15T01:51:40.894Z,1015.6
2017-10-15T01:52:21.263Z,1015.63
2017-10-15T01:53:01.619Z,1015.59
2017-10-15T01:53:42.062Z,1015.57
2017-10-15T01:54:22.470Z,1015.54
2017-10-15T01:55:02.915Z,1015.52
2017-10-15T01:55:43.563Z,1015.53
2017-10-15T01:56:24.016Z,1015.57
2017-10-15T01:57:04.371Z,1015.54
2017-10-15T01:57:44.825Z,1015.54
2017-10-15T01:58:25.307Z,1015.51
2017-10-15T01:59:05.933Z,1015.49
2017-10-15T01:59:46.345Z,1015.48
2017-10-15T02:00:26.747Z,1015.49
2017-10-15T02:01:07.370Z,1015.51
2017-10-15T02:01:47.399Z,1015.48
2017-10-15T02:02:27.795Z,1015.47
2017-10-15T02:03:08.217Z,1015.49
2017-10-15T02:03:48.580Z,1015.5
2017-10-15T02:04:29.039Z,1015.46
2017-10-15T02:05:09.510Z,1015.44
2017-10-15T02:05:49.941Z,1015.47
2017-10-15T02:06:30.645Z,1015.46
2017-10-15T02:07:11.036Z,1015.47
2017-10-15T02:07:51.430Z,1015.48
2017-10-15T02:08:31.877Z,1015.51
2017-10-15T02:09:12.306Z,1015.46
2017-10-15T02:09:52.790Z,1015.46
2017-10-15T02:10:33.341Z,1015.45
2017-10-15T02:11:13.881Z,1015.48
2017-10-15T02:11:54.166Z,1015.48
2017-10-15T02:12:35.282Z,1015.48
2017-10-15T02:13:15.154Z,1015.45
2017-10-15T02:13:55.641Z,1015.46
2017-10-15T02:14:36.133Z,1015.47
2017-10-15T02:15:16.515Z,1015.48
2017-10-15T02:15:56.988Z,1015.46
2017-10-15T02:16:37.391Z,1015.49
2017-10-15T02:17:17.762Z,1015.47
2017-10-15T02:17:58.186Z,1015.47
2017-10-15T02:18:38.620Z,1015.45
2017-10-15T02:19:19.067Z,1015.44
2017-10-15T02:19:59.496Z,1015.45
2017-10-15T02:20:39.958Z,1015.46
2017-10-15T02:21:20.318Z,1015.46
2017-10-15T02:22:00.683Z,1015.44
2017-10-15T02:22:41.019Z,1015.45
2017-10-15T02:23:21.523Z,1015.46
2017-10-15T02:24:02.032Z,1015.41
2017-10-15T02:24:42.435Z,1015.44
2017-10-15T02:25:22.913Z,1015.46
2017-10-15T02:26:03.434Z,1015.44
2017-10-15T02:26:43.789Z,1015.43
2017-10-15T02:27:24.176Z,1015.41
2017-10-15T02:28:04.546Z,1015.43
2017-10-15T02:28:44.965Z,1015.45
2017-10-15T02:29:25.388Z,1015.41
2017-10-15T02:30:05.709Z,1015.41
2017-10-15T02:30:46.089Z,1015.41
2017-10-15T02:31:26.638Z,1015.42
2017-10-15T02:32:07.093Z,1015.42
2017-10-15T02:32:47.447Z,1015.43
2017-10-15T02:33:27.853Z,1015.4
2017-10-15T02:34:08.238Z,1015.36
2017-10-15T02:34:48.666Z,1015.34
2017-10-15T02:35:29.040Z,1015.37
2017-10-15T02:36:09.451Z,1015.37
2017-10-15T02:36:49.833Z,1015.38
2017-10-15T02:37:30.250Z,1015.38
2017-10-15T02:38:10.806Z,1015.36
2017-10-15T02:38:51.320Z,1015.35
2017-10-15T02:39:31.789Z,1015.35
2017-10-15T02:40:12.110Z,1015.36
2017-10-15T02:40:52.597Z,1015.32
2017-10-15T02:41:32.949Z,1015.34
2017-10-15T02:42:13.366Z,1015.34
2017-10-15T02:42:53.829Z,1015.39
2017-10-15T02:43:34.313Z,1015.37
2017-10-15T02:44:14.638Z,1015.38
2017-10-15T02:44:55.148Z,1015.36
2017-10-15T02:45:35.558Z,1015.4
2017-10-15T02:46:16.154Z,1015.37
2017-10-15T02:46:56.565Z,1015.4
2017-10-15T02:47:36.979Z,1015.4
2017-10-15T02:48:17.414Z,1015.41
2017-10-15T02:48:57.748Z,1015.43
2017-10-15T02:49:38.193Z,1015.37
2017-10-15T02:50:18.620Z,1015.4
2017-10-15T02:50:58.997Z,1015.42
2017-10-15T02:51:39.372Z,1015.41
2017-10-15T02:52:19.817Z,1015.4
2017-10-15T02:53:00.231Z,1015.38
2017-10-15T02:53:40.604Z,1015.4
2017-10-15T02:54:21.222Z,1015.36
2017-10-15T02:55:01.608Z,1015.38
2017-10-15T02:55:42.085Z,1015.39
2017-10-15T02:56:22.676Z,1015.39
2017-10-15T02:57:03.019Z,1015.39
2017-10-15T02:57:43.500Z,1015.41
2017-10-15T02:58:23.871Z,1015.42
2017-10-15T02:59:04.354Z,1015.35
2017-10-15T02:59:44.774Z,1015.38
2017-10-15T03:00:25.351Z,1015.41
2017-10-15T03:01:05.655Z,1015.36
2017-10-15T03:01:46.086Z,1015.39
2017-10-15T03:02:26.496Z,1015.41
2017-10-15T03:03:06.953Z,1015.44
2017-10-15T03:03:47.294Z,1015.43
2017-10-15T03:04:27.766Z,1015.43
2017-10-15T03:05:08.143Z,1015.42
2017-10-15T03:05:48.500Z,1015.43
2017-10-15T03:06:29.002Z,1015.41
2017-10-15T03:07:09.446Z,1015.41
2017-10-15T03:07:50.055Z,1015.39
2017-10-15T03:08:30.382Z,1015.42
2017-10-15T03:09:10.931Z,1015.39
2017-10-15T03:09:51.429Z,1015.39
2017-10-15T03:10:31.842Z,1015.39
2017-10-15T03:11:12.320Z,1015.41
2017-10-15T03:11:52.675Z,1015.42
2017-10-15T03:12:33.133Z,1015.43
2017-10-15T03:13:13.522Z,1015.42
2017-10-15T03:13:54.088Z,1015.42
2017-10-15T03:14:34.482Z,1015.38
2017-10-15T03:15:14.982Z,1015.39
2017-10-15T03:15:55.418Z,1015.44
2017-10-15T03:16:35.828Z,1015.44
2017-10-15T03:17:16.239Z,1015.42
2017-10-15T03:17:56.732Z,1015.41
2017-10-15T03:18:37.119Z,1015.43
2017-10-15T03:19:17.518Z,1015.44
2017-10-15T03:19:57.903Z,1015.45
2017-10-15T03:20:38.391Z,1015.43
2017-10-15T03:21:18.778Z,1015.46
2017-10-15T03:21:59.181Z,1015.46
2017-10-15T03:22:39.606Z,1015.45
2017-10-15T03:23:20.093Z,1015.49
2017-10-15T03:24:00.430Z,1015.48
2017-10-15T03:24:40.826Z,1015.48
2017-10-15T03:25:21.371Z,1015.45
2017-10-15T03:26:01.686Z,1015.5
2017-10-15T03:26:42.132Z,1015.48
2017-10-15T03:27:22.577Z,1015.44
2017-10-15T03:28:02.964Z,1015.46
2017-10-15T03:28:43.352Z,1015.43
2017-10-15T03:29:23.768Z,1015.46
2017-10-15T03:30:04.167Z,1015.45
2017-10-15T03:30:44.566Z,1015.47
2017-10-15T03:31:25.053Z,1015.45
2017-10-15T03:32:05.533Z,1015.43
2017-10-15T03:32:45.897Z,1015.45
2017-10-15T03:33:26.359Z,1015.48
2017-10-15T03:34:06.856Z,1015.44
2017-10-15T03:34:47.247Z,1015.47
2017-10-15T03:35:27.784Z,1015.46
2017-10-15T03:36:08.135Z,1015.44
2017-10-15T03:36:48.578Z,1015.49
2017-10-15T03:37:29.036Z,1015.48
2017-10-15T03:38:09.492Z,1015.45
2017-10-15T03:38:49.826Z,1015.46
2017-10-15T03:39:30.302Z,1015.46
2017-10-15T03:40:10.695Z,1015.46
2017-10-15T03:40:51.136Z,1015.44
2017-10-15T03:41:31.597Z,1015.42
2017-10-15T03:42:12.032Z,1015.43
2017-10-15T03:42:52.466Z,1015.42
2017-10-15T03:43:32.995Z,1015.46
2017-10-15T03:44:13.244Z,1015.44
2017-10-15T03:44:53.700Z,1015.47
2017-10-15T03:45:34.117Z,1015.45
2017-10-15T03:46:14.743Z,1015.42
2017-10-15T03:46:55.173Z,1015.45
2017-10-15T03:47:36.254Z,1015.42
2017-10-15T03:48:16.711Z,1015.44
2017-10-15T03:48:57.132Z,1015.41
2017-10-15T03:49:37.426Z,1015.42
2017-10-15T03:50:17.839Z,1015.41
2017-10-15T03:50:58.315Z,1015.42
2017-10-15T03:51:38.828Z,1015.41
2017-10-15T03:52:19.304Z,1015.42
2017-10-15T03:52:59.836Z,1015.42
2017-10-15T03:53:40.202Z,1015.46
2017-10-15T03:54:20.708Z,1015.42
2017-10-15T03:55:01.146Z,1015.46
2017-10-15T03:55:41.618Z,1015.48
2017-10-15T03:56:22.011Z,1015.41
2017-10-15T03:57:02.523Z,1015.4
2017-10-15T03:57:43.057Z,1015.43
2017-10-15T03:58:23.704Z,1015.4
2017-10-15T03:59:04.058Z,1015.45
2017-10-15T03:59:44.460Z,1015.41
2017-10-15T04:00:24.804Z,1015.43
2017-10-15T04:01:05.289Z,1015.4
2017-10-15T04:01:45.894Z,1015.42
2017-10-15T04:02:26.282Z,1015.42
2017-10-15T04:03:06.805Z,1015.42
2017-10-15T04:03:47.354Z,1015.41
2017-10-15T04:04:27.762Z,1015.42
2017-10-15T04:05:08.300Z,1015.42
2017-10-15T04:05:48.762Z,1015.46
2017-10-15T04:06:29.280Z,1015.41
2017-10-15T04:07:09.730Z,1015.4
2017-10-15T04:07:50.069Z,1015.42
2017-10-15T04:08:30.523Z,1015.43
2017-10-15T04:09:11.031Z,1015.45
2017-10-15T04:09:51.435Z,1015.45
2017-10-15T04:10:31.861Z,1015.43
2017-10-15T04:11:12.345Z,1015.48
2017-10-15T04:11:52.762Z,1015.46
2017-10-15T04:12:33.290Z,1015.46
2017-10-15T04:13:13.752Z,1015.42
2017-10-15T04:13:54.257Z,1015.44
2017-10-15T04:14:34.731Z,1015.42
2017-10-15T04:15:15.146Z,1015.43
2017-10-15T04:15:55.504Z,1015.5
2017-10-15T04:16:35.950Z,1015.44
2017-10-15T04:17:16.360Z,1015.45
2017-10-15T04:17:56.700Z,1015.46
2017-10-15T04:18:37.137Z,1015.46
2017-10-15T04:19:17.531Z,1015.42
2017-10-15T04:19:58.060Z,1015.45
2017-10-15T04:20:38.607Z,1015.43
2017-10-15T04:21:18.915Z,1015.43
2017-10-15T04:21:59.308Z,1015.43
2017-10-15T04:22:39.868Z,1015.44
2017-10-15T04:23:20.310Z,1015.45
2017-10-15T04:24:00.705Z,1015.44
2017-10-15T04:24:41.084Z,1015.43
2017-10-15T04:25:21.822Z,1015.41
2017-10-15T04:26:02.222Z,1015.45
2017-10-15T04:26:42.663Z,1015.44
2017-10-15T04:27:23.142Z,1015.42
2017-10-15T04:28:04.318Z,1015.41
2017-10-15T04:28:43.897Z,1015.42
2017-10-15T04:29:24.342Z,1015.4
2017-10-15T04:30:04.689Z,1015.41
2017-10-15T04:30:45.165Z,1015.41
2017-10-15T04:31:25.711Z,1015.38
2017-10-15T04:32:06.178Z,1015.4
2017-10-15T04:32:46.581Z,1015.42
2017-10-15T04:33:26.983Z,1015.38
2017-10-15T04:34:07.380Z,1015.4
2017-10-15T04:34:47.868Z,1015.37
2017-10-15T04:35:28.278Z,1015.4
2017-10-15T04:36:08.747Z,1015.4
2017-10-15T04:36:49.291Z,1015.38
2017-10-15T04:37:29.635Z,1015.4
2017-10-15T04:38:10.085Z,1015.41
2017-10-15T04:38:50.662Z,1015.42
2017-10-15T04:39:31.166Z,1015.39
2017-10-15T04:40:11.503Z,1015.39
2017-10-15T04:40:52.010Z,1015.39
2017-10-15T04:41:32.391Z,1015.36
2017-10-15T04:42:12.727Z,1015.41
2017-10-15T04:42:53.224Z,1015.39
2017-10-15T04:43:33.584Z,1015.38
2017-10-15T04:44:14.146Z,1015.38
2017-10-15T04:44:54.558Z,1015.39
2017-10-15T04:45:35.004Z,1015.38
2017-10-15T04:46:15.597Z,1015.34
2017-10-15T04:46:56.101Z,1015.34
2017-10-15T04:47:36.376Z,1015.31
2017-10-15T04:48:16.813Z,1015.35
2017-10-15T04:48:57.274Z,1015.33
2017-10-15T04:49:37.772Z,1015.31
2017-10-15T04:50:18.182Z,1015.35
2017-10-15T04:50:58.630Z,1015.34
2017-10-15T04:51:39.053Z,1015.34
2017-10-15T04:52:19.404Z,1015.31
2017-10-15T04:53:00.080Z,1015.31
2017-10-15T04:53:40.577Z,1015.31
2017-10-15T04:56:17.429Z,1015.33
2017-10-15T04:57:09.855Z,1015.36
2017-10-15T04:58:02.380Z,1015.33
2017-10-15T04:58:57.783Z,1015.3
2017-10-15T04:59:50.990Z,1015.3
2017-10-15T05:00:43.193Z,1015.32
2017-10-15T05:01:35.999Z,1015.31
2017-10-15T05:02:28.519Z,1015.31
2017-10-15T05:03:21.104Z,1015.3
2017-10-15T05:04:13.561Z,1015.3
2017-10-15T05:05:05.891Z,1015.29
2017-10-15T05:05:57.938Z,1015.32
2017-10-15T05:06:50.418Z,1015.31
2017-10-15T05:07:44.387Z,1015.3
2017-10-15T05:08:36.969Z,1015.34
2017-10-15T05:09:29.054Z,1015.36
2017-10-15T05:10:21.613Z,1015.31
2017-10-15T05:11:14.734Z,1015.32
2017-10-15T05:12:07.457Z,1015.3
2017-10-15T05:12:59.926Z,1015.31
2017-10-15T05:13:54.679Z,1015.26
2017-10-15T05:14:48.385Z,1015.33
2017-10-15T05:15:41.714Z,1015.27
2017-10-15T05:16:33.900Z,1015.28
2017-10-15T05:17:25.993Z,1015.27
2017-10-15T05:18:18.825Z,1015.28
2017-10-15T05:19:11.565Z,1015.25
2017-10-15T05:20:04.070Z,1015.26
2017-10-15T05:20:56.118Z,1015.24
2017-10-15T05:21:48.363Z,1015.26
2017-10-15T05:22:41.577Z,1015.25
2017-10-15T05:23:34.525Z,1015.23
2017-10-15T05:24:27.396Z,1015.21
2017-10-15T05:25:19.993Z,1015.25
2017-10-15T05:26:13.423Z,1015.24
2017-10-15T05:27:06.600Z,1015.22
2017-10-15T05:28:00.479Z,1015.23
2017-10-15T05:28:52.898Z,1015.24
2017-10-15T05:29:44.922Z,1015.26
2017-10-15T05:30:37.904Z,1015.28
2017-10-15T05:31:22.163Z,1015.33
2017-10-15T05:32:02.589Z,1015.33
2017-10-15T05:32:42.998Z,1015.34
2017-10-15T05:33:23.449Z,1015.27
2017-10-15T05:34:03.810Z,1015.27
2017-10-15T05:34:44.180Z,1015.32
2017-10-15T05:35:24.667Z,1015.32
2017-10-15T05:36:05.066Z,1015.33
2017-10-15T05:36:45.485Z,1015.33
2017-10-15T05:37:26.065Z,1015.33
2017-10-15T05:38:06.670Z,1015.35
2017-10-15T05:38:47.005Z,1015.36
2017-10-15T05:39:27.586Z,1015.31
2017-10-15T05:40:08.731Z,1015.32
2017-10-15T05:40:49.237Z,1015.28
2017-10-15T05:41:29.722Z,1015.3
2017-10-15T05:42:10.138Z,1015.31
2017-10-15T05:42:50.525Z,1015.32
2017-10-15T05:43:31.100Z,1015.26
2017-10-15T05:44:11.635Z,1015.28
2017-10-15T05:44:52.162Z,1015.3
2017-10-15T05:45:32.473Z,1015.29
2017-10-15T05:46:12.925Z,1015.32
2017-10-15T05:46:54.209Z,1015.29
2017-10-15T05:47:34.628Z,1015.3
2017-10-15T05:48:15.200Z,1015.3
2017-10-15T05:48:55.616Z,1015.29
2017-10-15T05:49:36.059Z,1015.27
2017-10-15T05:50:16.439Z,1015.29
2017-10-15T05:50:56.818Z,1015.27
2017-10-15T05:51:37.337Z,1015.3
2017-10-15T05:52:17.819Z,1015.26
2017-10-15T05:52:58.179Z,1015.25
2017-10-15T05:53:38.609Z,1015.22
2017-10-15T05:54:18.998Z,1015.27
2017-10-15T05:54:59.446Z,1015.24
2017-10-15T05:55:39.860Z,1015.25
2017-10-15T05:56:20.229Z,1015.26
2017-10-15T05:57:00.875Z,1015.24
2017-10-15T05:57:41.606Z,1015.22
2017-10-15T05:58:21.982Z,1015.21
2017-10-15T05:59:02.828Z,1015.2
2017-10-15T05:59:43.198Z,1015.23
2017-10-15T06:00:23.635Z,1015.2
2017-10-15T06:01:04.174Z,1015.2
2017-10-15T06:01:44.529Z,1015.24
2017-10-15T06:02:24.998Z,1015.23
2017-10-15T06:03:05.333Z,1015.2
2017-10-15T06:03:45.871Z,1015.26
2017-10-15T06:04:26.187Z,1015.25
2017-10-15T06:05:06.649Z,1015.24
2017-10-15T06:05:47.118Z,1015.25
2017-10-15T06:06:27.494Z,1015.23
2017-10-15T06:07:07.953Z,1015.23
2017-10-15T06:07:48.285Z,1015.23
2017-10-15T06:08:28.804Z,1015.25
2017-10-15T06:09:09.207Z,1015.29
2017-10-15T06:09:49.928Z,1015.24
2017-10-15T06:10:30.476Z,1015.28
2017-10-15T06:11:10.882Z,1015.29
2017-10-15T06:11:51.536Z,1015.29
2017-10-15T06:12:34.855Z,1015.3
2017-10-15T06:13:15.116Z,1015.31
2017-10-15T06:13:55.533Z,1015.32
2017-10-15T06:14:35.983Z,1015.31
2017-10-15T06:15:16.385Z,1015.29
2017-10-15T06:15:56.856Z,1015.32
2017-10-15T06:16:37.366Z,1015.31
2017-10-15T06:17:17.784Z,1015.31
2017-10-15T06:17:58.128Z,1015.28
2017-10-15T06:18:38.543Z,1015.31
2017-10-15T06:19:19.064Z,1015.3
2017-10-15T06:19:59.404Z,1015.32
2017-10-15T06:20:39.776Z,1015.32
2017-10-15T06:21:20.295Z,1015.31
2017-10-15T06:22:00.667Z,1015.31
2017-10-15T06:22:41.156Z,1015.31
2017-10-15T06:23:21.770Z,1015.3
2017-10-15T06:24:02.064Z,1015.34
2017-10-15T06:24:42.452Z,1015.32
2017-10-15T06:25:23.072Z,1015.32
2017-10-15T06:26:03.422Z,1015.31
2017-10-15T06:26:43.888Z,1015.32
2017-10-15T06:27:24.334Z,1015.28
2017-10-15T06:28:04.761Z,1015.29
2017-10-15T06:28:45.336Z,1015.32
2017-10-15T06:29:25.765Z,1015.32
2017-10-15T06:30:06.161Z,1015.31
2017-10-15T06:30:46.889Z,1015.32
2017-10-15T06:31:27.096Z,1015.36
2017-10-15T06:32:07.529Z,1015.39
2017-10-15T06:32:47.908Z,1015.35
2017-10-15T06:33:28.460Z,1015.39
2017-10-15T06:34:09.015Z,1015.37
2017-10-15T06:34:49.427Z,1015.35
2017-10-15T06:35:29.972Z,1015.37
2017-10-15T06:36:10.353Z,1015.33
2017-10-15T06:36:50.717Z,1015.34
2017-10-15T06:37:31.108Z,1015.35
2017-10-15T06:38:11.660Z,1015.36
2017-10-15T06:38:52.040Z,1015.32
2017-10-15T06:39:32.411Z,1015.36
2017-10-15T06:40:12.881Z,1015.38
2017-10-15T06:40:53.297Z,1015.32
2017-10-15T06:41:34.663Z,1015.38
2017-10-15T06:42:15.115Z,1015.35
2017-10-15T06:42:55.530Z,1015.33
2017-10-15T06:43:35.986Z,1015.35
2017-10-15T06:44:16.426Z,1015.34
2017-10-15T06:44:56.820Z,1015.37
2017-10-15T06:45:37.835Z,1015.34
2017-10-15T06:46:17.531Z,1015.41
2017-10-15T06:46:58.034Z,1015.33
2017-10-15T06:47:38.366Z,1015.35
2017-10-15T06:48:18.982Z,1015.33
2017-10-15T06:48:59.683Z,1015.31
2017-10-15T06:49:40.167Z,1015.32
2017-10-15T06:50:20.573Z,1015.34
2017-10-15T06:51:00.908Z,1015.38
2017-10-15T06:51:41.365Z,1015.37
2017-10-15T06:52:21.851Z,1015.37
2017-10-15T06:53:02.303Z,1015.37
2017-10-15T06:53:42.657Z,1015.38
2017-10-15T06:54:23.416Z,1015.35
2017-10-15T06:55:03.877Z,1015.36
2017-10-15T06:55:44.250Z,1015.44
2017-10-15T06:56:24.740Z,1015.39
2017-10-15T06:57:05.412Z,1015.37
2017-10-15T06:57:45.710Z,1015.39
2017-10-15T06:58:26.098Z,1015.35
2017-10-15T06:59:06.734Z,1015.35
2017-10-15T06:59:47.114Z,1015.42
2017-10-15T07:00:27.474Z,1015.37
2017-10-15T07:01:07.981Z,1015.41
2017-10-15T07:01:49.279Z,1015.4
2017-10-15T07:02:29.350Z,1015.4
2017-10-15T07:03:09.806Z,1015.4
2017-10-15T07:03:50.350Z,1015.41
2017-10-15T07:04:30.850Z,1015.35
2017-10-15T07:05:11.173Z,1015.37
2017-10-15T07:05:51.813Z,1015.37
2017-10-15T07:06:32.780Z,1015.4
2017-10-15T07:07:13.160Z,1015.36
2017-10-15T07:07:53.739Z,1015.4
2017-10-15T07:08:34.050Z,1015.4
2017-10-15T07:09:14.473Z,1015.39
2017-10-15T07:12:56.657Z,1015.45
2017-10-15T07:13:53.111Z,1015.4
2017-10-15T07:14:45.202Z,1015.41
2017-10-15T07:15:40.248Z,1015.44
2017-10-15T07:16:34.256Z,1015.44
2017-10-15T07:17:31.221Z,1015.46
2017-10-15T07:18:26.656Z,1015.43
2017-10-15T07:19:19.647Z,1015.49
2017-10-15T07:20:14.362Z,1015.46
2017-10-15T07:21:09.117Z,1015.43
2017-10-15T07:22:09.204Z,1015.41
2017-10-15T07:23:06.505Z,1015.48
2017-10-15T07:24:00.182Z,1015.51
2017-10-15T07:24:52.314Z,1015.45
2017-10-15T07:25:48.569Z,1015.48
2017-10-15T07:26:44.005Z,1015.47
2017-10-15T07:27:38.439Z,1015.41
2017-10-15T07:28:33.201Z,1015.41
2017-10-15T07:29:27.780Z,1015.4
2017-10-15T07:31:42.251Z,1015.42
2017-10-15T07:32:35.992Z,1015.42
2017-10-15T07:33:29.136Z,1015.4
2017-10-15T07:34:24.322Z,1015.41
2017-10-15T07:35:16.264Z,1015.41
2017-10-15T07:36:10.653Z,1015.37
2017-10-15T07:37:05.861Z,1015.37
2017-10-15T07:37:58.958Z,1015.38
2017-10-15T07:38:52.232Z,1015.41
2017-10-15T07:39:51.661Z,1015.41
2017-10-15T07:40:46.608Z,1015.43
2017-10-15T07:41:44.444Z,1015.37
2017-10-15T07:42:40.256Z,1015.37
2017-10-15T07:43:32.989Z,1015.36
2017-10-15T07:44:31.058Z,1015.37
2017-10-15T07:45:28.875Z,1015.37
2017-10-15T07:46:27.279Z,1015.36
2017-10-15T07:47:20.074Z,1015.42
2017-10-15T07:48:16.967Z,1015.41
2017-10-15T07:49:05.379Z,1015.39
2017-10-15T07:49:47.073Z,1015.41
2017-10-15T07:50:27.758Z,1015.43
2017-10-15T07:51:08.366Z,1015.4
2017-10-15T07:51:49.081Z,1015.39
2017-10-15T07:52:29.914Z,1015.38
2017-10-15T07:53:10.385Z,1015.43
2017-10-15T07:53:50.830Z,1015.42
2017-10-15T07:54:31.252Z,1015.43
2017-10-15T07:55:11.693Z,1015.41
2017-10-15T07:55:52.238Z,1015.42
2017-10-15T07:56:32.721Z,1015.4
2017-10-15T07:57:13.012Z,1015.38
2017-10-15T07:57:53.576Z,1015.42
2017-10-15T07:58:34.027Z,1015.4
2017-10-15T07:59:14.543Z,1015.44
2017-10-15T07:59:55.048Z,1015.4
2017-10-15T08:00:35.718Z,1015.34
2017-10-15T08:01:16.544Z,1015.41
2017-10-15T08:01:56.984Z,1015.4
2017-10-15T08:02:37.694Z,1015.4
2017-10-15T08:03:18.386Z,1015.4
2017-10-15T08:03:58.798Z,1015.4
2017-10-15T08:04:39.134Z,1015.41
2017-10-15T08:05:19.644Z,1015.37
2017-10-15T08:06:01.441Z,1015.4
2017-10-15T08:06:42.525Z,1015.4
2017-10-15T08:07:23.546Z,1015.38
2017-10-15T08:08:03.782Z,1015.34
2017-10-15T08:08:44.235Z,1015.36
2017-10-15T08:09:24.895Z,1015.35
2017-10-15T08:10:05.381Z,1015.32
2017-10-15T08:10:45.909Z,1015.33
2017-10-15T08:11:26.443Z,1015.31
2017-10-15T08:12:06.850Z,1015.3
2017-10-15T08:12:47.486Z,1015.25
2017-10-15T08:13:27.890Z,1015.28
2017-10-15T08:14:08.317Z,1015.23
2017-10-15T08:14:48.715Z,1015.23
2017-10-15T08:15:29.392Z,1015.25
2017-10-15T08:16:09.813Z,1015.21
2017-10-15T08:16:50.344Z,1015.26
2017-10-15T08:17:30.787Z,1015.27
2017-10-15T08:18:11.348Z,1015.27
2017-10-15T08:18:51.874Z,1015.29
2017-10-15T08:19:32.392Z,1015.26
2017-10-15T08:20:12.763Z,1015.26
2017-10-15T08:20:53.178Z,1015.27
2017-10-15T08:21:33.711Z,1015.27
2017-10-15T08:22:14.060Z,1015.29
2017-10-15T08:22:54.585Z,1015.34
2017-10-15T08:23:34.952Z,1015.36
2017-10-15T08:24:16.317Z,1015.36
2017-10-15T08:24:56.794Z,1015.34
2017-10-15T08:25:37.674Z,1015.38
2017-10-15T08:26:19.599Z,1015.38
2017-10-15T08:27:01.277Z,1015.34
2017-10-15T08:27:41.631Z,1015.38
2017-10-15T08:28:22.000Z,1015.36
2017-10-15T08:29:02.492Z,1015.36
2017-10-15T08:29:42.995Z,1015.38
2017-10-15T08:30:23.462Z,1015.37
2017-10-15T08:31:04.066Z,1015.36
2017-10-15T08:31:44.297Z,1015.37
2017-10-15T08:32:24.796Z,1015.35
2017-10-15T08:33:05.178Z,1015.36
2017-10-15T08:33:45.664Z,1015.35
2017-10-15T08:34:26.439Z,1015.29
2017-10-15T08:35:06.800Z,1015.28